sensor_id;sensor_type;location;lat;lon;timestamp;pressure;altitude;pressure_sealevel;temperature;humidity
52797;BME280;38666;43.348;12.584;2022-08-19T06:56:15;95183.41;;;22.31;81.40
52797;BME280;38666;43.348;12.584;2022-08-19T06:58:42;95182.28;;;22.22;81.76
52797;BME280;38666;43.348;12.584;2022-08-19T07:01:08;95189.03;;;22.36;81.70
52797;BME280;38666;43.348;12.584;2022-08-19T07:03:35;95190.59;;;22.43;83.97
52797;BME280;38666;43.348;12.584;2022-08-19T07:06:08;95205.94;;;22.33;81.51
52797;BME280;38666;43.348;12.584;2022-08-19T07:08:35;95194.41;;;22.46;81.17
52797;BME280;38666;43.348;12.584;2022-08-19T07:11:09;95206.41;;;22.58;80.48
52797;BME280;38666;43.348;12.584;2022-08-19T07:13:36;95197.94;;;22.73;79.76
52797;BME280;38666;43.348;12.584;2022-08-19T07:16:10;95204.81;;;22.78;78.88
52797;BME280;38666;43.348;12.584;2022-08-19T07:18:37;95205.00;;;23.01;78.33
52797;BME280;38666;43.348;12.584;2022-08-19T07:21:09;95201.50;;;23.12;78.29
52797;BME280;38666;43.348;12.584;2022-08-19T07:23:35;95197.03;;;23.20;78.19
52797;BME280;38666;43.348;12.584;2022-08-19T07:26:13;95208.97;;;23.32;76.47
52797;BME280;38666;43.348;12.584;2022-08-19T07:28:39;95209.13;;;23.17;77.15
52797;BME280;38666;43.348;12.584;2022-08-19T07:31:10;95205.31;;;23.14;75.05
52797;BME280;38666;43.348;12.584;2022-08-19T07:33:36;95217.97;;;23.15;75.91
52797;BME280;38666;43.348;12.584;2022-08-19T07:36:05;95209.56;;;23.04;75.59
52797;BME280;38666;43.348;12.584;2022-08-19T07:38:32;95208.34;;;22.78;76.89
52797;BME280;38666;43.348;12.584;2022-08-19T07:40:57;95214.69;;;22.79;76.64
52797;BME280;38666;43.348;12.584;2022-08-19T07:43:23;95215.00;;;22.60;78.09
52797;BME280;38666;43.348;12.584;2022-08-19T07:45:52;95210.13;;;22.76;78.52
52797;BME280;38666;43.348;12.584;2022-08-19T07:48:22;95206.88;;;22.56;78.16
52797;BME280;38666;43.348;12.584;2022-08-19T07:50:50;95208.97;;;22.88;77.31
52797;BME280;38666;43.348;12.584;2022-08-19T07:53:16;95208.94;;;23.26;74.77
52797;BME280;38666;43.348;12.584;2022-08-19T07:55:41;95212.03;;;23.34;75.32
52797;BME280;38666;43.348;12.584;2022-08-19T07:58:07;95209.56;;;23.42;71.25
52797;BME280;38666;43.348;12.584;2022-08-19T08:00:33;95206.94;;;23.76;69.46
52797;BME280;38666;43.348;12.584;2022-08-19T08:02:59;95197.53;;;23.74;69.47
52797;BME280;38666;43.348;12.584;2022-08-19T08:05:24;95194.47;;;24.27;67.83
52797;BME280;38666;43.348;12.584;2022-08-19T08:08:08;95202.34;;;24.57;68.61
52797;BME280;38666;43.348;12.584;2022-08-19T08:10:52;95210.75;;;24.97;64.90
52797;BME280;38666;43.348;12.584;2022-08-19T08:13:18;95203.88;;;24.70;66.01
52797;BME280;38666;43.348;12.584;2022-08-19T08:15:43;95199.06;;;24.70;66.01
52797;BME280;38666;43.348;12.584;2022-08-19T08:18:10;95201.81;;;24.41;68.04
52797;BME280;38666;43.348;12.584;2022-08-19T08:20:36;95209.19;;;24.56;67.45
52797;BME280;38666;43.348;12.584;2022-08-19T08:23:02;95214.03;;;24.73;65.93
52797;BME280;38666;43.348;12.584;2022-08-19T08:25:46;95215.50;;;24.28;66.19
52797;BME280;38666;43.348;12.584;2022-08-19T08:28:13;95231.22;;;24.20;65.82
52797;BME280;38666;43.348;12.584;2022-08-19T08:30:38;95232.06;;;23.82;67.95
52797;BME280;38666;43.348;12.584;2022-08-19T08:33:06;95230.75;;;23.77;68.58
52797;BME280;38666;43.348;12.584;2022-08-19T08:35:32;95224.91;;;23.31;71.20
52797;BME280;38666;43.348;12.584;2022-08-19T08:37:58;95228.63;;;23.55;69.11
52797;BME280;38666;43.348;12.584;2022-08-19T08:40:32;95220.19;;;23.43;68.94
52797;BME280;38666;43.348;12.584;2022-08-19T08:46:04;95235.16;;;23.46;72.33
52797;BME280;38666;43.348;12.584;2022-08-19T08:48:32;95216.59;;;22.93;74.76
52797;BME280;38666;43.348;12.584;2022-08-19T08:51:05;95234.69;;;22.83;74.27
52797;BME280;38666;43.348;12.584;2022-08-19T08:53:34;95243.75;;;22.78;73.61
52797;BME280;38666;43.348;12.584;2022-08-19T08:56:02;95247.91;;;22.88;74.69
52797;BME280;38666;43.348;12.584;2022-08-19T09:01:16;95251.13;;;23.45;71.98
52797;BME280;38666;43.348;12.584;2022-08-19T09:03:42;95254.53;;;23.67;69.47
52797;BME280;38666;43.348;12.584;2022-08-19T09:09:03;95261.91;;;23.76;72.10
52797;BME280;38666;43.348;12.584;2022-08-19T09:14:34;95280.56;;;23.20;74.31
52797;BME280;38666;43.348;12.584;2022-08-19T09:17:02;95278.84;;;22.96;75.17
52797;BME280;38666;43.348;12.584;2022-08-19T09:19:29;95272.31;;;22.72;74.83
52797;BME280;38666;43.348;12.584;2022-08-19T09:21:55;95273.19;;;22.58;77.25
52797;BME280;38666;43.348;12.584;2022-08-19T09:24:21;95284.03;;;22.35;78.13
52797;BME280;38666;43.348;12.584;2022-08-19T09:26:47;95314.53;;;22.03;78.25
52797;BME280;38666;43.348;12.584;2022-08-19T09:29:12;95328.72;;;21.53;80.96
52797;BME280;38666;43.348;12.584;2022-08-19T09:31:38;95374.25;;;21.41;78.44
52797;BME280;38666;43.348;12.584;2022-08-19T09:34:03;95400.13;;;20.77;77.53
52797;BME280;38666;43.348;12.584;2022-08-19T09:36:33;95439.53;;;20.42;78.19
52797;BME280;38666;43.348;12.584;2022-08-19T09:39:05;95448.47;;;19.69;79.55
52797;BME280;38666;43.348;12.584;2022-08-19T09:41:31;95461.47;;;19.44;80.13
52797;BME280;38666;43.348;12.584;2022-08-19T09:43:57;95455.59;;;19.51;84.27
52797;BME280;38666;43.348;12.584;2022-08-19T09:46:26;95430.72;;;19.32;83.76
52797;BME280;38666;43.348;12.584;2022-08-19T09:48:52;95403.50;;;19.31;84.83
52797;BME280;38666;43.348;12.584;2022-08-19T09:51:21;95384.13;;;19.31;82.58
52797;BME280;38666;43.348;12.584;2022-08-19T09:53:48;95370.72;;;19.39;81.01
52797;BME280;38666;43.348;12.584;2022-08-19T09:56:18;95346.16;;;19.22;79.50
52797;BME280;38666;43.348;12.584;2022-08-19T09:58:44;95335.59;;;19.01;80.55
52797;BME280;38666;43.348;12.584;2022-08-19T10:01:18;95341.94;;;18.74;80.67
52797;BME280;38666;43.348;12.584;2022-08-19T10:03:48;95346.53;;;18.77;79.40
52797;BME280;38666;43.348;12.584;2022-08-19T10:06:14;95353.25;;;18.95;82.76
52797;BME280;38666;43.348;12.584;2022-08-19T10:08:39;95351.72;;;19.12;79.77
52797;BME280;38666;43.348;12.584;2022-08-19T10:11:05;95346.44;;;19.33;80.21
52797;BME280;38666;43.348;12.584;2022-08-19T10:13:32;95359.25;;;19.55;78.11
52797;BME280;38666;43.348;12.584;2022-08-19T10:16:07;95353.69;;;19.65;78.60
52797;BME280;38666;43.348;12.584;2022-08-19T10:18:34;95338.56;;;19.75;77.53
52797;BME280;38666;43.348;12.584;2022-08-19T10:21:07;95329.31;;;19.78;74.97
52797;BME280;38666;43.348;12.584;2022-08-19T10:23:34;95318.59;;;19.71;75.54
52797;BME280;38666;43.348;12.584;2022-08-19T10:26:00;95309.28;;;19.83;76.17
52797;BME280;38666;43.348;12.584;2022-08-19T10:28:26;95309.16;;;19.78;79.37
52797;BME280;38666;43.348;12.584;2022-08-19T10:30:51;95312.22;;;20.04;75.76
52797;BME280;38666;43.348;12.584;2022-08-19T10:33:18;95319.19;;;20.24;72.16
52797;BME280;38666;43.348;12.584;2022-08-19T10:35:43;95323.84;;;20.57;71.58
52797;BME280;38666;43.348;12.584;2022-08-19T10:38:12;95317.75;;;20.68;69.21
52797;BME280;38666;43.348;12.584;2022-08-19T10:40:37;95322.75;;;20.79;68.40
52797;BME280;38666;43.348;12.584;2022-08-19T10:43:03;95339.63;;;21.06;70.10
52797;BME280;38666;43.348;12.584;2022-08-19T10:45:28;95345.69;;;20.65;75.42
52797;BME280;38666;43.348;12.584;2022-08-19T10:47:54;95341.94;;;19.79;79.02
52797;BME280;38666;43.348;12.584;2022-08-19T10:50:19;95345.50;;;19.36;83.55
52797;BME280;38666;43.348;12.584;2022-08-19T10:53:08;95345.34;;;19.74;81.24
52797;BME280;38666;43.348;12.584;2022-08-19T10:55:34;95353.78;;;20.04;78.83
52797;BME280;38666;43.348;12.584;2022-08-19T10:58:20;95364.38;;;19.81;79.62
52797;BME280;38666;43.348;12.584;2022-08-19T11:00:55;95372.56;;;19.32;82.58
52797;BME280;38666;43.348;12.584;2022-08-19T11:03:21;95369.81;;;19.32;85.69
52797;BME280;38666;43.348;12.584;2022-08-19T11:06:04;95364.03;;;19.89;80.80
52797;BME280;38666;43.348;12.584;2022-08-19T11:08:30;95356.03;;;19.91;80.98
52797;BME280;38666;43.348;12.584;2022-08-19T11:10:59;95359.41;;;19.61;79.11
52797;BME280;38666;43.348;12.584;2022-08-19T11:13:31;95366.59;;;19.68;79.44
52797;BME280;38666;43.348;12.584;2022-08-19T11:15:59;95364.38;;;19.47;82.14
52797;BME280;38666;43.348;12.584;2022-08-19T11:18:25;95366.03;;;19.54;82.85
52797;BME280;38666;43.348;12.584;2022-08-19T11:20:51;95375.50;;;19.72;81.80
52797;BME280;38666;43.348;12.584;2022-08-19T11:23:17;95379.91;;;19.45;81.48
52797;BME280;38666;43.348;12.584;2022-08-19T11:25:42;95388.28;;;19.35;85.46
52797;BME280;38666;43.348;12.584;2022-08-19T11:28:08;95389.47;;;19.44;86.12
52797;BME280;38666;43.348;12.584;2022-08-19T11:30:33;95376.91;;;19.24;85.70
52797;BME280;38666;43.348;12.584;2022-08-19T11:32:59;95373.47;;;19.48;87.37
52797;BME280;38666;43.348;12.584;2022-08-19T11:35:26;95365.44;;;19.84;85.75
52797;BME280;38666;43.348;12.584;2022-08-19T11:37:51;95355.97;;;20.00;82.81
52797;BME280;38666;43.348;12.584;2022-08-19T11:40:17;95331.25;;;20.21;82.18
52797;BME280;38666;43.348;12.584;2022-08-19T11:42:42;95320.94;;;20.37;81.39
52797;BME280;38666;43.348;12.584;2022-08-19T11:45:26;95316.25;;;20.03;79.41
52797;BME280;38666;43.348;12.584;2022-08-19T11:47:52;95302.38;;;20.28;81.52
52797;BME280;38666;43.348;12.584;2022-08-19T11:50:18;95286.25;;;20.41;81.54
52797;BME280;38666;43.348;12.584;2022-08-19T11:52:44;95277.38;;;20.83;80.18
52797;BME280;38666;43.348;12.584;2022-08-19T11:55:12;95275.44;;;20.59;83.28
52797;BME280;38666;43.348;12.584;2022-08-19T11:57:38;95268.59;;;20.99;78.50
52797;BME280;38666;43.348;12.584;2022-08-19T12:00:05;95257.84;;;20.77;78.11
52797;BME280;38666;43.348;12.584;2022-08-19T12:02:32;95248.25;;;21.23;79.18
52797;BME280;38666;43.348;12.584;2022-08-19T12:04:57;95239.56;;;21.51;75.58
52797;BME280;38666;43.348;12.584;2022-08-19T12:07:23;95229.44;;;21.69;73.70
52797;BME280;38666;43.348;12.584;2022-08-19T12:09:49;95232.34;;;22.22;72.64
52797;BME280;38666;43.348;12.584;2022-08-19T12:12:16;95229.84;;;22.78;69.54
52797;BME280;38666;43.348;12.584;2022-08-19T12:14:41;95226.47;;;22.41;68.48
52797;BME280;38666;43.348;12.584;2022-08-19T12:17:06;95239.47;;;22.77;66.60
52797;BME280;38666;43.348;12.584;2022-08-19T12:19:36;95246.56;;;23.10;66.83
52797;BME280;38666;43.348;12.584;2022-08-19T12:22:01;95256.00;;;22.86;67.11
52797;BME280;38666;43.348;12.584;2022-08-19T12:24:30;95257.66;;;23.86;63.45
52797;BME280;38666;43.348;12.584;2022-08-19T12:26:57;95258.88;;;23.36;66.24
52797;BME280;38666;43.348;12.584;2022-08-19T12:29:24;95263.03;;;23.46;65.66
52797;BME280;38666;43.348;12.584;2022-08-19T12:31:54;95264.03;;;25.40;59.84
52797;BME280;38666;43.348;12.584;2022-08-19T12:34:25;95253.31;;;26.32;54.85
52797;BME280;38666;43.348;12.584;2022-08-19T12:36:51;95237.63;;;27.33;53.07
52797;BME280;38666;43.348;12.584;2022-08-19T12:39:17;95245.19;;;28.13;49.90
52797;BME280;38666;43.348;12.584;2022-08-19T12:41:42;95242.13;;;26.38;52.32
52797;BME280;38666;43.348;12.584;2022-08-19T12:44:07;95226.06;;;25.84;54.13
52797;BME280;38666;43.348;12.584;2022-08-19T12:46:33;95208.38;;;26.61;52.21
52797;BME280;38666;43.348;12.584;2022-08-19T12:48:58;95198.34;;;26.77;50.42
52797;BME280;38666;43.348;12.584;2022-08-19T12:51:24;95204.28;;;27.54;48.55
52797;BME280;38666;43.348;12.584;2022-08-19T12:53:50;95208.00;;;28.07;46.36
52797;BME280;38666;43.348;12.584;2022-08-19T12:56:15;95204.34;;;28.70;44.19
52797;BME280;38666;43.348;12.584;2022-08-19T12:58:42;95216.97;;;29.56;42.89
52797;BME280;38666;43.348;12.584;2022-08-19T13:01:10;95225.22;;;31.21;40.13
52797;BME280;38666;43.348;12.584;2022-08-19T13:03:36;95227.19;;;31.34;38.84
52797;BME280;38666;43.348;12.584;2022-08-19T13:06:02;95234.81;;;31.47;39.25
52797;BME280;38666;43.348;12.584;2022-08-19T13:08:27;95240.97;;;30.25;39.98
52797;BME280;38666;43.348;12.584;2022-08-19T13:10:53;95241.16;;;29.46;41.57
52797;BME280;38666;43.348;12.584;2022-08-19T13:13:18;95238.97;;;28.59;45.47
52797;BME280;38666;43.348;12.584;2022-08-19T13:15:44;95238.22;;;28.39;47.22
52797;BME280;38666;43.348;12.584;2022-08-19T13:18:11;95233.19;;;28.12;46.90
52797;BME280;38666;43.348;12.584;2022-08-19T13:20:38;95235.63;;;28.03;47.75
52797;BME280;38666;43.348;12.584;2022-08-19T13:23:06;95238.22;;;28.91;45.49
52797;BME280;38666;43.348;12.584;2022-08-19T13:25:31;95254.06;;;28.75;45.11
52797;BME280;38666;43.348;12.584;2022-08-19T13:27:57;95261.13;;;28.24;45.94
52797;BME280;38666;43.348;12.584;2022-08-19T13:30:22;95271.50;;;28.10;46.98
52797;BME280;38666;43.348;12.584;2022-08-19T13:33:20;95282.44;;;28.71;45.82
52797;BME280;38666;43.348;12.584;2022-08-19T13:35:48;95294.78;;;28.05;47.89
52797;BME280;38666;43.348;12.584;2022-08-19T13:38:17;95306.44;;;28.09;47.03
52797;BME280;38666;43.348;12.584;2022-08-19T13:40:43;95310.66;;;27.96;47.37
52797;BME280;38666;43.348;12.584;2022-08-19T13:43:09;95316.19;;;26.85;51.06
52797;BME280;38666;43.348;12.584;2022-08-19T13:45:34;95298.75;;;27.34;50.33
52797;BME280;38666;43.348;12.584;2022-08-19T13:48:03;95294.72;;;27.30;49.22
52797;BME280;38666;43.348;12.584;2022-08-19T13:50:32;95291.41;;;26.52;51.84
52797;BME280;38666;43.348;12.584;2022-08-19T13:52:59;95285.91;;;27.45;49.60
52797;BME280;38666;43.348;12.584;2022-08-19T13:55:26;95274.41;;;26.44;51.60
52797;BME280;38666;43.348;12.584;2022-08-19T13:57:56;95279.28;;;26.32;52.47
52797;BME280;38666;43.348;12.584;2022-08-19T14:00:24;95256.75;;;26.07;53.20
52797;BME280;38666;43.348;12.584;2022-08-19T14:02:53;95248.72;;;25.75;54.51
52797;BME280;38666;43.348;12.584;2022-08-19T14:05:19;95255.59;;;25.74;55.24
52797;BME280;38666;43.348;12.584;2022-08-19T14:07:45;95258.91;;;25.61;55.45
52797;BME280;38666;43.348;12.584;2022-08-19T14:10:12;95266.47;;;25.89;54.21
52797;BME280;38666;43.348;12.584;2022-08-19T14:12:38;95279.25;;;25.61;54.57
52797;BME280;38666;43.348;12.584;2022-08-19T14:15:05;95280.03;;;24.82;57.76
52797;BME280;38666;43.348;12.584;2022-08-19T14:17:31;95282.03;;;24.70;59.50
52797;BME280;38666;43.348;12.584;2022-08-19T14:19:59;95273.91;;;24.72;58.33
52797;BME280;38666;43.348;12.584;2022-08-19T14:22:31;95268.38;;;25.06;55.59
52797;BME280;38666;43.348;12.584;2022-08-19T14:24:57;95260.75;;;25.01;56.38
52797;BME280;38666;43.348;12.584;2022-08-19T14:27:22;95267.63;;;25.00;57.25
52797;BME280;38666;43.348;12.584;2022-08-19T14:29:53;95260.22;;;24.74;57.68
52797;BME280;38666;43.348;12.584;2022-08-19T14:32:18;95243.66;;;24.30;58.40
52797;BME280;38666;43.348;12.584;2022-08-19T14:34:44;95247.44;;;23.28;62.22
52797;BME280;38666;43.348;12.584;2022-08-19T14:37:14;95263.81;;;23.47;62.73
52797;BME280;38666;43.348;12.584;2022-08-19T14:39:43;95275.50;;;23.56;62.40
52797;BME280;38666;43.348;12.584;2022-08-19T14:42:10;95275.56;;;23.30;64.81
52797;BME280;38666;43.348;12.584;2022-08-19T14:44:37;95297.75;;;23.51;65.02
52797;BME280;38666;43.348;12.584;2022-08-19T14:47:03;95314.69;;;23.15;67.09
52797;BME280;38666;43.348;12.584;2022-08-19T14:49:29;95347.50;;;23.05;60.10
52797;BME280;38666;43.348;12.584;2022-08-19T14:51:55;95359.13;;;21.42;63.78
52797;BME280;38666;43.348;12.584;2022-08-19T14:54:21;95379.31;;;20.57;69.39
52797;BME280;38666;43.348;12.584;2022-08-19T14:56:46;95403.13;;;19.91;75.56
52797;BME280;38666;43.348;12.584;2022-08-19T14:59:12;95410.69;;;19.47;82.28
52797;BME280;38666;43.348;12.584;2022-08-19T15:01:37;95388.59;;;19.09;88.33
52797;BME280;38666;43.348;12.584;2022-08-19T15:04:03;95338.84;;;18.72;89.01
52797;BME280;38666;43.348;12.584;2022-08-19T15:06:28;95319.50;;;18.72;81.41
52797;BME280;38666;43.348;12.584;2022-08-19T15:08:54;95347.75;;;18.85;79.18
52797;BME280;38666;43.348;12.584;2022-08-19T15:11:22;95335.88;;;19.04;79.87
52797;BME280;38666;43.348;12.584;2022-08-19T15:13:48;95348.50;;;19.14;79.95
52797;BME280;38666;43.348;12.584;2022-08-19T15:16:15;95338.28;;;19.39;75.10
52797;BME280;38666;43.348;12.584;2022-08-19T15:18:42;95348.50;;;19.57;74.80
52797;BME280;38666;43.348;12.584;2022-08-19T15:21:11;95356.41;;;19.74;76.40
52797;BME280;38666;43.348;12.584;2022-08-19T15:23:38;95353.25;;;19.91;76.47
52797;BME280;38666;43.348;12.584;2022-08-19T15:26:04;95355.38;;;19.96;75.05
52797;BME280;38666;43.348;12.584;2022-08-19T15:30:57;95340.72;;;20.29;76.81
52797;BME280;38666;43.348;12.584;2022-08-19T15:33:22;95343.66;;;20.26;77.41
52797;BME280;38666;43.348;12.584;2022-08-19T15:35:48;95341.94;;;20.28;77.13
52797;BME280;38666;43.348;12.584;2022-08-19T15:38:16;95343.88;;;20.37;76.78
52797;BME280;38666;43.348;12.584;2022-08-19T15:40:44;95355.81;;;20.28;75.86
52797;BME280;38666;43.348;12.584;2022-08-19T15:43:10;95350.22;;;20.13;79.67
52797;BME280;38666;43.348;12.584;2022-08-19T15:45:35;95348.22;;;20.14;77.88
52797;BME280;38666;43.348;12.584;2022-08-19T15:48:02;95356.25;;;20.02;77.45
52797;BME280;38666;43.348;12.584;2022-08-19T15:50:29;95343.50;;;20.29;77.12
52797;BME280;38666;43.348;12.584;2022-08-19T15:53:02;95341.81;;;20.47;78.47
52797;BME280;38666;43.348;12.584;2022-08-19T15:55:31;95333.69;;;20.59;75.90
52797;BME280;38666;43.348;12.584;2022-08-19T15:57:58;95327.03;;;20.26;76.28
52797;BME280;38666;43.348;12.584;2022-08-19T16:00:42;95322.59;;;20.43;78.11
52797;BME280;38666;43.348;12.584;2022-08-19T16:03:27;95324.63;;;20.73;76.97
52797;BME280;38666;43.348;12.584;2022-08-19T16:06:11;95323.53;;;20.95;75.77
52797;BME280;38666;43.348;12.584;2022-08-19T16:08:57;95319.78;;;20.98;73.56
52797;BME280;38666;43.348;12.584;2022-08-19T16:11:25;95317.22;;;21.10;73.67
52797;BME280;38666;43.348;12.584;2022-08-19T16:13:52;95317.97;;;21.10;73.60
52797;BME280;38666;43.348;12.584;2022-08-19T16:16:23;95319.88;;;21.04;74.59
52797;BME280;38666;43.348;12.584;2022-08-19T16:18:49;95319.88;;;21.19;73.62
52797;BME280;38666;43.348;12.584;2022-08-19T16:21:18;95312.78;;;21.18;72.81
52797;BME280;38666;43.348;12.584;2022-08-19T16:23:45;95316.03;;;21.32;72.63
52797;BME280;38666;43.348;12.584;2022-08-19T16:26:12;95321.41;;;21.20;74.24
52797;BME280;38666;43.348;12.584;2022-08-19T16:28:39;95319.28;;;21.30;74.95
52797;BME280;38666;43.348;12.584;2022-08-19T16:31:04;95316.09;;;21.52;73.67
52797;BME280;38666;43.348;12.584;2022-08-19T16:33:30;95307.78;;;21.73;74.78
52797;BME280;38666;43.348;12.584;2022-08-19T16:35:56;95311.19;;;21.98;72.39
52797;BME280;38666;43.348;12.584;2022-08-19T16:38:21;95293.69;;;22.13;70.18
52797;BME280;38666;43.348;12.584;2022-08-19T16:40:47;95291.56;;;22.29;67.10
52797;BME280;38666;43.348;12.584;2022-08-19T16:43:18;95297.53;;;22.42;67.01
52797;BME280;38666;43.348;12.584;2022-08-19T16:45:47;95298.06;;;22.67;67.91
52797;BME280;38666;43.348;12.584;2022-08-19T16:48:13;95300.31;;;22.63;68.02
52797;BME280;38666;43.348;12.584;2022-08-19T16:50:38;95301.47;;;22.77;69.28
52797;BME280;38666;43.348;12.584;2022-08-19T16:53:06;95313.47;;;23.98;64.66
52797;BME280;38666;43.348;12.584;2022-08-19T16:55:32;95319.56;;;24.57;61.92
52797;BME280;38666;43.348;12.584;2022-08-19T16:57:57;95329.47;;;24.03;62.42
52797;BME280;38666;43.348;12.584;2022-08-19T17:00:24;95327.19;;;23.58;63.21
52797;BME280;38666;43.348;12.584;2022-08-19T17:02:49;95330.00;;;22.51;67.09
52797;BME280;38666;43.348;12.584;2022-08-19T17:05:15;95345.88;;;21.67;72.52
52797;BME280;38666;43.348;12.584;2022-08-19T17:07:41;95342.84;;;21.20;75.78
52797;BME280;38666;43.348;12.584;2022-08-19T17:10:06;95350.22;;;21.38;74.92
52797;BME280;38666;43.348;12.584;2022-08-19T17:12:32;95349.53;;;21.43;75.20
52797;BME280;38666;43.348;12.584;2022-08-19T17:15:00;95352.53;;;21.24;76.01
52797;BME280;38666;43.348;12.584;2022-08-19T17:17:27;95348.97;;;21.09;77.47
52797;BME280;38666;43.348;12.584;2022-08-19T17:19:52;95351.94;;;21.35;74.91
52797;BME280;38666;43.348;12.584;2022-08-19T17:22:18;95350.13;;;21.32;75.53
52797;BME280;38666;43.348;12.584;2022-08-19T17:24:43;95351.88;;;20.99;76.22
52797;BME280;38666;43.348;12.584;2022-08-19T17:27:08;95354.84;;;20.71;78.52
52797;BME280;38666;43.348;12.584;2022-08-19T17:29:34;95359.19;;;20.72;78.47
52797;BME280;38666;43.348;12.584;2022-08-19T17:31:59;95361.00;;;20.75;78.45
52797;BME280;38666;43.348;12.584;2022-08-19T17:34:25;95369.97;;;20.70;79.39
52797;BME280;38666;43.348;12.584;2022-08-19T17:36:50;95363.63;;;20.54;78.58
52797;BME280;38666;43.348;12.584;2022-08-19T17:39:16;95364.00;;;20.47;80.42
52797;BME280;38666;43.348;12.584;2022-08-19T17:41:41;95367.50;;;20.32;82.69
52797;BME280;38666;43.348;12.584;2022-08-19T17:44:08;95368.19;;;20.18;83.11
52797;BME280;38666;43.348;12.584;2022-08-19T17:46:34;95377.22;;;20.03;83.70
52797;BME280;38666;43.348;12.584;2022-08-19T17:49:00;95383.97;;;20.12;84.40
52797;BME280;38666;43.348;12.584;2022-08-19T17:53:57;95370.13;;;20.02;84.93
52797;BME280;38666;43.348;12.584;2022-08-19T17:56:23;95364.75;;;19.99;85.22
52797;BME280;38666;43.348;12.584;2022-08-19T17:58:50;95359.09;;;19.93;84.19
52797;BME280;38666;43.348;12.584;2022-08-19T18:01:17;95367.16;;;19.81;86.34
52797;BME280;38666;43.348;12.584;2022-08-19T18:03:43;95371.31;;;19.77;87.03
52797;BME280;38666;43.348;12.584;2022-08-19T18:06:08;95369.66;;;19.70;86.84
52797;BME280;38666;43.348;12.584;2022-08-19T18:08:34;95368.47;;;19.61;88.40
52797;BME280;38666;43.348;12.584;2022-08-19T18:11:04;95373.72;;;19.59;88.66
52797;BME280;38666;43.348;12.584;2022-08-19T18:13:29;95373.88;;;19.56;89.32
52797;BME280;38666;43.348;12.584;2022-08-19T18:15:55;95370.41;;;19.46;88.91
52797;BME280;38666;43.348;12.584;2022-08-19T18:18:24;95365.19;;;19.39;89.15
52797;BME280;38666;43.348;12.584;2022-08-19T18:20:51;95364.91;;;19.27;88.81
52797;BME280;38666;43.348;12.584;2022-08-19T18:23:17;95373.69;;;19.25;85.92
52797;BME280;38666;43.348;12.584;2022-08-19T18:25:42;95371.06;;;19.22;84.53
52797;BME280;38666;43.348;12.584;2022-08-19T18:28:08;95381.41;;;19.12;84.68
52797;BME280;38666;43.348;12.584;2022-08-19T18:30:33;95378.47;;;19.06;85.12
52797;BME280;38666;43.348;12.584;2022-08-19T18:33:02;95385.88;;;19.00;85.53
52797;BME280;38666;43.348;12.584;2022-08-19T18:35:29;95383.09;;;19.00;85.57
52797;BME280;38666;43.348;12.584;2022-08-19T18:37:58;95380.94;;;18.95;85.99
52797;BME280;38666;43.348;12.584;2022-08-19T18:40:25;95378.94;;;18.95;86.50
52797;BME280;38666;43.348;12.584;2022-08-19T18:43:10;95389.84;;;18.89;86.83
52797;BME280;38666;43.348;12.584;2022-08-19T18:45:49;95393.53;;;18.86;86.48
52797;BME280;38666;43.348;12.584;2022-08-19T18:48:34;95400.78;;;18.84;87.06
52797;BME280;38666;43.348;12.584;2022-08-19T18:51:19;95396.31;;;18.86;87.12
